Time;durP1;ratioP1;P1;durP2;ratioP2;P2;SDS_P1;SDS_P2;PMS_P1;PMS_P2;Temp;Humidity;BMP_temperature;BMP_pressure;BME280_temperature;BME280_humidity;BME280_pressure;Samples;Min_cycle;Max_cycle;Signal;HPM_P1;HPM_P2
2021/07/05 00:01:24;;;;;;;9.75;5.05;;;;;;;;;;5055608;28;20025;-69
2021/07/05 00:03:50;;;;;;;9.23;5.28;;;;;;;;;;5054408;28;20028;-70
2021/07/05 00:06:17;;;;;;;10.52;4.93;;;;;;;;;;5054386;28;20458;-70
2021/07/05 00:08:43;;;;;;;7.85;5.25;;;;;;;;;;5054451;28;20406;-69
2021/07/05 00:11:09;;;;;;;8.75;4.85;;;;;;;;;;5054361;28;20401;-70
2021/07/05 00:13:35;;;;;;;7.38;5.22;;;;;;;;;;5054159;28;20017;-69
2021/07/05 00:16:01;;;;;;;7.80;5.15;;;;;;;;;;5054360;28;20013;-69
2021/07/05 00:18:28;;;;;;;9.75;5.38;;;;;;;;;;5054229;28;20021;-69
2021/07/05 00:20:54;;;;;;;8.43;5.43;;;;;;;;;;5053997;28;20183;-70
2021/07/05 00:23:20;;;;;;;8.95;5.68;;;;;;;;;;5054133;28;20020;-70
2021/07/05 00:25:47;;;;;;;9.27;5.55;;;;;;;;;;5053908;28;20102;-69
2021/07/05 00:28:13;;;;;;;9.45;5.35;;;;;;;;;;5054383;28;20440;-71
2021/07/05 00:30:39;;;;;;;9.90;5.70;;;;;;;;;;5053989;28;20053;-69
2021/07/05 00:33:05;;;;;;;9.85;5.72;;;;;;;;;;5053968;28;20021;-69
2021/07/05 00:35:32;;;;;;;7.00;5.60;;;;;;;;;;5053664;28;20079;-69
2021/07/05 00:37:58;;;;;;;9.73;6.03;;;;;;;;;;5053357;28;20063;-69
2021/07/05 00:40:26;;;;;;;7.70;5.20;;;;;;;;;;5053710;28;20021;-70
2021/07/05 00:42:53;;;;;;;10.30;5.55;;;;;;;;;;5053910;28;20048;-69
2021/07/05 00:45:19;;;;;;;9.27;5.15;;;;;;;;;;5053716;28;20053;-70
2021/07/05 00:47:45;;;;;;;7.75;5.70;;;;;;;;;;5053364;28;20013;-68
2021/07/05 00:50:12;;;;;;;5.78;4.70;;;;;;;;;;5036033;28;20523;-70
2021/07/05 00:52:39;;;;;;;10.25;6.13;;;;;;;;;;5053552;28;20074;-69
2021/07/05 00:55:07;;;;;;;7.20;5.35;;;;;;;;;;5053591;28;20032;-70
2021/07/05 00:57:32;;;;;;;11.05;5.75;;;;;;;;;;5053271;28;20031;-69
2021/07/05 00:59:59;;;;;;;9.77;6.35;;;;;;;;;;5053459;28;20025;-70
2021/07/05 01:02:26;;;;;;;9.30;6.47;;;;;;;;;;5053382;28;20036;-69
2021/07/05 01:04:52;;;;;;;9.38;5.70;;;;;;;;;;5053247;28;20090;-69
2021/07/05 01:07:20;;;;;;;8.80;6.07;;;;;;;;;;5053378;28;20040;-69
2021/07/05 01:09:46;;;;;;;10.10;5.95;;;;;;;;;;5035234;28;20107;-69
2021/07/05 01:12:12;;;;;;;8.07;5.28;;;;;;;;;;5053414;28;20485;-69
2021/07/05 01:14:39;;;;;;;9.15;5.80;;;;;;;;;;5053135;28;20071;-69
2021/07/05 01:17:13;;;;;;;10.43;5.85;;;;;;;;;;5053229;28;20035;-69
2021/07/05 01:19:40;;;;;;;8.25;6.03;;;;;;;;;;5052712;28;20032;-69
2021/07/05 01:22:06;;;;;;;9.63;6.05;;;;;;;;;;5053101;28;20151;-70
2021/07/05 01:24:32;;;;;;;10.15;6.15;;;;;;;;;;5053030;28;20497;-69
2021/07/05 01:26:57;;;;;;;8.32;6.13;;;;;;;;;;5053144;28;20025;-70
2021/07/05 01:29:23;;;;;;;7.88;6.00;;;;;;;;;;5052842;28;20017;-70
2021/07/05 01:31:49;;;;;;;9.45;6.30;;;;;;;;;;5052465;28;20017;-69
2021/07/05 01:34:15;;;;;;;11.02;6.30;;;;;;;;;;5053224;28;20032;-69
2021/07/05 01:36:40;;;;;;;9.05;5.72;;;;;;;;;;5052752;28;20074;-69
2021/07/05 01:39:07;;;;;;;7.93;6.40;;;;;;;;;;5052564;28;20089;-69
2021/07/05 01:41:33;;;;;;;11.25;6.13;;;;;;;;;;5052477;28;20052;-69
2021/07/05 01:43:59;;;;;;;10.13;6.53;;;;;;;;;;5052739;28;20017;-69
2021/07/05 01:46:26;;;;;;;8.80;6.72;;;;;;;;;;5052348;28;20071;-68
2021/07/05 01:48:51;;;;;;;11.30;6.20;;;;;;;;;;5052434;28;20021;-69
2021/07/05 01:51:17;;;;;;;11.02;6.00;;;;;;;;;;5052681;28;20027;-70
2021/07/05 01:53:43;;;;;;;9.43;6.20;;;;;;;;;;5052386;28;20028;-69
2021/07/05 01:56:09;;;;;;;10.70;6.68;;;;;;;;;;5052504;28;20528;-69
2021/07/05 01:58:36;;;;;;;10.93;6.38;;;;;;;;;;5052598;28;20022;-68
2021/07/05 02:01:03;;;;;;;11.20;6.43;;;;;;;;;;5052184;28;20082;-68
2021/07/05 02:03:29;;;;;;;10.63;6.47;;;;;;;;;;5052408;28;20028;-69
2021/07/05 02:05:55;;;;;;;10.73;5.85;;;;;;;;;;5052874;28;20041;-69
2021/07/05 02:08:22;;;;;;;15.32;6.72;;;;;;;;;;5052365;28;20363;-69
2021/07/05 02:10:51;;;;;;;9.52;5.78;;;;;;;;;;5052265;28;20013;-69
2021/07/05 02:13:20;;;;;;;7.83;5.97;;;;;;;;;;5034689;28;20462;-69
2021/07/05 02:15:47;;;;;;;8.23;5.75;;;;;;;;;;5051801;28;20266;-68
2021/07/05 02:18:13;;;;;;;10.40;6.72;;;;;;;;;;5052437;28;20023;-69
2021/07/05 02:20:39;;;;;;;8.95;6.93;;;;;;;;;;5053386;28;20111;-68
2021/07/05 02:23:07;;;;;;;8.35;6.28;;;;;;;;;;5052847;28;20461;-70
2021/07/05 02:25:33;;;;;;;8.57;6.05;;;;;;;;;;5034181;28;20021;-68
2021/07/05 02:28:00;;;;;;;7.70;5.32;;;;;;;;;;5052079;28;20032;-69
2021/07/05 02:30:27;;;;;;;8.60;5.65;;;;;;;;;;5051971;28;20108;-68
2021/07/05 02:32:59;;;;;;;9.30;6.32;;;;;;;;;;5051939;28;20051;-69
2021/07/05 02:35:27;;;;;;;6.97;5.55;;;;;;;;;;5052186;28;20104;-69
2021/07/05 02:37:54;;;;;;;9.05;6.38;;;;;;;;;;5033899;28;20021;-69
2021/07/05 02:40:21;;;;;;;10.27;5.50;;;;;;;;;;5052099;28;20021;-69
2021/07/05 02:42:48;;;;;;;6.85;5.53;;;;;;;;;;5051803;28;20018;-69
2021/07/05 02:45:17;;;;;;;9.55;5.32;;;;;;;;;;5051627;28;20051;-68
2021/07/05 02:47:43;;;;;;;6.75;5.35;;;;;;;;;;5052110;28;20573;-68
2021/07/05 02:50:09;;;;;;;10.95;6.00;;;;;;;;;;5051930;28;20504;-69
2021/07/05 02:52:35;;;;;;;10.05;5.95;;;;;;;;;;5051775;28;20013;-69
2021/07/05 02:55:01;;;;;;;8.13;6.00;;;;;;;;;;5051971;28;20430;-69
2021/07/05 02:57:29;;;;;;;8.73;5.88;;;;;;;;;;5051777;28;20047;-68
2021/07/05 03:00:00;;;;;;;8.52;6.00;;;;;;;;;;5051645;28;20438;-69
2021/07/05 03:02:26;;;;;;;7.32;5.10;;;;;;;;;;5055685;28;20053;-68
2021/07/05 03:04:52;;;;;;;12.05;6.00;;;;;;;;;;5055678;28;20098;-69
2021/07/05 03:07:18;;;;;;;8.45;5.93;;;;;;;;;;5055677;28;20031;-69
2021/07/05 03:09:44;;;;;;;8.82;6.25;;;;;;;;;;5055384;28;20021;-69
2021/07/05 03:12:13;;;;;;;10.32;6.70;;;;;;;;;;5055647;28;20025;-68
2021/07/05 03:14:39;;;;;;;9.23;6.60;;;;;;;;;;5055456;28;20025;-68
2021/07/05 03:17:05;;;;;;;8.88;6.72;;;;;;;;;;5055430;28;20025;-69
2021/07/05 03:19:32;;;;;;;9.80;6.53;;;;;;;;;;5055283;28;20025;-69
2021/07/05 03:21:58;;;;;;;8.82;6.85;;;;;;;;;;5055535;28;20116;-69
2021/07/05 03:24:24;;;;;;;9.48;5.80;;;;;;;;;;5055473;28;20108;-69
2021/07/05 03:26:50;;;;;;;10.90;7.05;;;;;;;;;;5054944;28;20084;-69
2021/07/05 03:29:17;;;;;;;10.00;5.95;;;;;;;;;;5055433;28;20017;-69
2021/07/05 03:31:43;;;;;;;10.43;6.25;;;;;;;;;;5055271;28;20100;-68
2021/07/05 03:34:09;;;;;;;9.57;6.38;;;;;;;;;;5055084;28;20401;-69
2021/07/05 03:36:35;;;;;;;9.13;6.70;;;;;;;;;;5055009;28;20021;-68
2021/07/05 03:39:01;;;;;;;8.30;6.72;;;;;;;;;;5055035;28;20047;-69
2021/07/05 03:41:28;;;;;;;10.52;6.38;;;;;;;;;;5054772;28;20049;-68
2021/07/05 03:43:54;;;;;;;9.90;6.93;;;;;;;;;;5054645;28;20052;-69
2021/07/05 03:46:19;;;;;;;12.10;7.00;;;;;;;;;;5054748;28;20057;-69
2021/07/05 03:48:46;;;;;;;7.40;6.30;;;;;;;;;;5054977;28;20013;-68
2021/07/05 03:51:12;;;;;;;8.50;6.40;;;;;;;;;;5054913;28;20312;-69
2021/07/05 03:53:39;;;;;;;8.05;6.35;;;;;;;;;;5054582;28;20036;-68
2021/07/05 03:56:04;;;;;;;10.95;7.13;;;;;;;;;;5054648;28;20020;-69
2021/07/05 03:58:30;;;;;;;11.15;7.35;;;;;;;;;;5054890;28;20017;-69
2021/07/05 04:00:59;;;;;;;8.52;6.07;;;;;;;;;;5054283;28;20029;-69
2021/07/05 04:03:27;;;;;;;11.23;6.68;;;;;;;;;;5054674;28;20481;-69
2021/07/05 04:05:53;;;;;;;14.40;7.68;;;;;;;;;;5054192;28;20056;-69
2021/07/05 04:08:21;;;;;;;16.48;7.18;;;;;;;;;;5054730;28;20566;-69
2021/07/05 04:10:48;;;;;;;9.82;7.00;;;;;;;;;;5054557;28;20048;-68
2021/07/05 04:13:14;;;;;;;10.32;6.60;;;;;;;;;;5053252;28;20028;-69
2021/07/05 04:15:41;;;;;;;9.75;6.65;;;;;;;;;;5054043;28;20017;-68
2021/07/05 04:18:07;;;;;;;10.20;7.07;;;;;;;;;;5054311;28;20051;-69
2021/07/05 04:20:34;;;;;;;9.70;7.20;;;;;;;;;;5054249;28;20106;-69
2021/07/05 04:23:00;;;;;;;11.88;7.22;;;;;;;;;;5054350;28;20166;-69
2021/07/05 04:25:26;;;;;;;8.15;5.80;;;;;;;;;;5054145;28;20017;-69
2021/07/05 04:27:53;;;;;;;8.20;6.60;;;;;;;;;;5053765;28;20021;-70
2021/07/05 04:30:20;;;;;;;11.63;7.22;;;;;;;;;;5054195;28;20006;-70
2021/07/05 04:32:46;;;;;;;11.90;6.68;;;;;;;;;;5054046;28;20017;-69
2021/07/05 04:35:14;;;;;;;10.63;7.28;;;;;;;;;;5054147;28;20021;-70
2021/07/05 04:37:41;;;;;;;11.52;7.72;;;;;;;;;;5053551;28;20024;-69
2021/07/05 04:40:08;;;;;;;17.13;7.13;;;;;;;;;;5054079;28;20029;-69
2021/07/05 04:42:35;;;;;;;13.95;6.78;;;;;;;;;;5054149;28;20017;-70
2021/07/05 04:45:00;;;;;;;11.45;7.15;;;;;;;;;;5053711;28;20096;-69
2021/07/05 04:47:26;;;;;;;10.50;6.75;;;;;;;;;;5053697;28;20168;-70
2021/07/05 04:49:52;;;;;;;10.27;6.03;;;;;;;;;;5053391;28;20100;-70
2021/07/05 04:52:19;;;;;;;12.82;6.45;;;;;;;;;;5053616;28;20017;-71
2021/07/05 04:54:44;;;;;;;14.70;6.75;;;;;;;;;;5053482;28;20021;-70
2021/07/05 04:57:11;;;;;;;9.50;5.60;;;;;;;;;;5053513;28;20414;-70
2021/07/05 04:59:37;;;;;;;12.13;7.20;;;;;;;;;;5053049;28;20018;-69
2021/07/05 05:02:03;;;;;;;10.73;6.53;;;;;;;;;;5053497;28;20452;-70
2021/07/05 05:04:30;;;;;;;11.15;6.85;;;;;;;;;;5053432;28;20013;-70
2021/07/05 05:06:56;;;;;;;8.70;6.20;;;;;;;;;;5053255;28;20577;-70
2021/07/05 05:09:25;;;;;;;8.45;5.72;;;;;;;;;;5053132;28;20091;-69
2021/07/05 05:11:51;;;;;;;8.63;6.35;;;;;;;;;;5052999;28;20048;-70
2021/07/05 05:14:18;;;;;;;13.50;6.95;;;;;;;;;;5053498;28;20056;-70
2021/07/05 05:16:45;;;;;;;13.02;6.47;;;;;;;;;;5053064;28;20120;-69
2021/07/05 05:19:11;;;;;;;11.73;6.15;;;;;;;;;;5053050;28;20021;-70
2021/07/05 05:21:37;;;;;;;8.65;6.00;;;;;;;;;;5053028;28;20025;-69
2021/07/05 05:24:04;;;;;;;7.65;5.43;;;;;;;;;;5053207;28;20027;-70
2021/07/05 05:26:31;;;;;;;8.07;5.50;;;;;;;;;;5057241;28;20044;-72
2021/07/05 05:28:57;;;;;;;8.40;5.22;;;;;;;;;;5048128;28;20009;-73
2021/07/05 05:31:23;;;;;;;10.55;5.95;;;;;;;;;;5061632;28;20363;-68
2021/07/05 05:33:48;;;;;;;16.65;6.13;;;;;;;;;;5038980;28;20025;-71
2021/07/05 05:36:14;;;;;;;13.90;6.63;;;;;;;;;;5058292;28;20060;-70
2021/07/05 05:38:45;;;;;;;9.30;5.43;;;;;;;;;;5067570;28;20063;-70
2021/07/05 05:41:11;;;;;;;12.52;5.18;;;;;;;;;;5063415;28;20043;-71
2021/07/05 05:43:37;;;;;;;19.48;6.15;;;;;;;;;;5052715;28;20021;-69
2021/07/05 05:46:02;;;;;;;14.88;6.07;;;;;;;;;;5051616;28;20064;-72
2021/07/05 05:48:28;;;;;;;11.35;4.93;;;;;;;;;;5056146;28;20044;-68
2021/07/05 05:50:54;;;;;;;8.50;4.80;;;;;;;;;;5051584;28;20021;-70
2021/07/05 05:53:20;;;;;;;10.63;5.65;;;;;;;;;;5052304;28;20017;-71
2021/07/05 05:55:47;;;;;;;9.57;4.35;;;;;;;;;;5044879;28;20016;-70
2021/07/05 05:58:13;;;;;;;10.50;5.38;;;;;;;;;;5047319;28;20024;-71
2021/07/05 06:00:39;;;;;;;10.38;4.75;;;;;;;;;;5056925;28;20123;-69
2021/07/05 06:03:04;;;;;;;9.55;4.90;;;;;;;;;;5055888;28;20031;-70
2021/07/05 06:05:30;;;;;;;10.63;5.53;;;;;;;;;;5054590;28;20020;-66
2021/07/05 06:07:56;;;;;;;12.20;5.40;;;;;;;;;;5056243;28;20017;-70
2021/07/05 06:10:23;;;;;;;9.95;5.25;;;;;;;;;;5050209;28;20123;-70
2021/07/05 06:12:49;;;;;;;9.02;5.45;;;;;;;;;;5048504;28;20378;-70
2021/07/05 06:15:16;;;;;;;7.13;4.95;;;;;;;;;;5051190;28;20020;-74
2021/07/05 06:17:42;;;;;;;11.02;5.00;;;;;;;;;;5050830;28;20414;-71
2021/07/05 06:20:08;;;;;;;6.03;4.68;;;;;;;;;;5051056;28;20064;-71
2021/07/05 06:22:40;;;;;;;8.93;4.10;;;;;;;;;;5057456;28;20094;-69
2021/07/05 06:25:06;;;;;;;7.70;4.07;;;;;;;;;;5026003;28;20521;-67
2021/07/05 06:27:32;;;;;;;6.32;4.90;;;;;;;;;;5040383;28;20066;-71
2021/07/05 06:29:57;;;;;;;8.30;5.05;;;;;;;;;;5057269;28;20068;-71
2021/07/05 06:32:23;;;;;;;5.78;4.85;;;;;;;;;;5059910;28;20020;-71
2021/07/05 06:34:48;;;;;;;7.30;5.00;;;;;;;;;;5057083;28;20390;-71
2021/07/05 06:37:14;;;;;;;10.90;4.63;;;;;;;;;;5062493;28;20073;-71
2021/07/05 06:39:40;;;;;;;5.05;4.28;;;;;;;;;;5064368;28;20508;-73
2021/07/05 06:42:05;;;;;;;6.55;5.13;;;;;;;;;;5060371;28;20075;-71
2021/07/05 06:44:31;;;;;;;5.47;4.20;;;;;;;;;;5063244;28;20021;-70
2021/07/05 06:46:56;;;;;;;9.05;5.60;;;;;;;;;;5059013;28;20044;-74
2021/07/05 06:49:22;;;;;;;8.70;5.15;;;;;;;;;;5057179;28;20393;-71
2021/07/05 06:51:49;;;;;;;9.75;4.38;;;;;;;;;;5059836;28;20474;-67
2021/07/05 06:54:14;;;;;;;7.82;4.88;;;;;;;;;;5063188;28;20070;-70
2021/07/05 06:56:39;;;;;;;10.93;4.85;;;;;;;;;;5066367;28;20024;-69
2021/07/05 06:59:05;;;;;;;6.88;5.03;;;;;;;;;;5060950;28;20095;-68
2021/07/05 07:01:32;;;;;;;6.22;4.45;;;;;;;;;;5058261;28;20026;-71
2021/07/05 07:03:58;;;;;;;5.13;4.60;;;;;;;;;;5051292;28;20107;-68
2021/07/05 07:06:24;;;;;;;8.00;4.93;;;;;;;;;;5060102;28;20054;-66
2021/07/05 07:08:49;;;;;;;8.23;5.00;;;;;;;;;;5057287;28;20490;-67
2021/07/05 07:11:15;;;;;;;6.60;4.40;;;;;;;;;;5053929;28;20071;-68
2021/07/05 07:13:40;;;;;;;11.65;4.55;;;;;;;;;;5058678;28;20028;-70
2021/07/05 07:16:06;;;;;;;5.28;4.30;;;;;;;;;;5068576;28;20028;-71
2021/07/05 07:18:46;;;;;;;9.68;5.10;;;;;;;;;;5066314;28;20020;-68
2021/07/05 07:21:11;;;;;;;9.07;4.55;;;;;;;;;;5069502;28;20048;-66
2021/07/05 07:23:37;;;;;;;5.05;4.45;;;;;;;;;;5062875;28;20504;-66
2021/07/05 07:26:02;;;;;;;6.72;4.85;;;;;;;;;;5072668;28;20063;-70
2021/07/05 07:28:28;;;;;;;6.20;4.82;;;;;;;;;;5056680;28;20075;-69
2021/07/05 07:30:54;;;;;;;8.80;5.63;;;;;;;;;;5055945;28;20381;-69
2021/07/05 07:33:19;;;;;;;8.00;5.00;;;;;;;;;;5058605;28;20024;-68
2021/07/05 07:35:45;;;;;;;9.68;5.88;;;;;;;;;;5064907;28;20493;-68
2021/07/05 07:38:12;;;;;;;15.75;5.97;;;;;;;;;;5061568;22;20481;-68
2021/07/05 07:40:40;;;;;;;26.98;5.82;;;;;;;;;;5036617;28;20033;-66
2021/07/05 07:43:06;;;;;;;42.45;8.40;;;;;;;;;;5034535;28;20151;-66
2021/07/05 07:45:32;;;;;;;15.90;5.07;;;;;;;;;;5042756;28;20112;-68
2021/07/05 07:47:57;;;;;;;10.80;4.90;;;;;;;;;;5042120;28;20028;-73
2021/07/05 07:50:23;;;;;;;5.53;4.45;;;;;;;;;;5023615;28;20017;-68
2021/07/05 07:52:48;;;;;;;6.43;4.20;;;;;;;;;;5041606;28;20017;-70
2021/07/05 07:55:15;;;;;;;8.63;4.65;;;;;;;;;;5048277;28;20017;-70
2021/07/05 07:57:40;;;;;;;9.75;5.25;;;;;;;;;;5040343;28;20040;-68
2021/07/05 08:00:07;;;;;;;6.72;4.50;;;;;;;;;;5049323;28;20059;-72
2021/07/05 08:02:33;;;;;;;6.57;4.80;;;;;;;;;;5040048;28;20029;-72
2021/07/05 08:04:58;;;;;;;6.70;4.32;;;;;;;;;;5035174;28;20038;-71
2021/07/05 08:07:24;;;;;;;8.13;4.55;;;;;;;;;;5045089;28;20053;-73
2021/07/05 08:09:49;;;;;;;16.88;4.32;;;;;;;;;;5038549;28;20449;-75
2021/07/05 08:12:15;;;;;;;7.60;4.03;;;;;;;;;;5046680;28;20731;-76
2021/07/05 08:14:40;;;;;;;5.20;4.30;;;;;;;;;;5046317;28;20023;-73
2021/07/05 08:17:06;;;;;;;6.68;4.68;;;;;;;;;;5049040;28;20030;-75
2021/07/05 08:19:31;;;;;;;9.82;4.75;;;;;;;;;;5046500;28;20017;-76
2021/07/05 08:21:57;;;;;;;5.20;4.47;;;;;;;;;;5015017;28;20024;-71
2021/07/05 08:24:22;;;;;;;12.40;4.55;;;;;;;;;;5033458;28;20009;-70
2021/07/05 08:26:48;;;;;;;10.85;4.50;;;;;;;;;;5013267;28;20108;-70
2021/07/05 08:29:13;;;;;;;14.35;4.80;;;;;;;;;;5032170;28;20029;-69
2021/07/05 08:31:38;;;;;;;6.68;4.75;;;;;;;;;;5032077;28;20025;-71
2021/07/05 08:34:04;;;;;;;6.70;4.05;;;;;;;;;;5031916;28;20063;-70
2021/07/05 08:36:29;;;;;;;10.57;4.75;;;;;;;;;;5031854;28;20526;-70
2021/07/05 08:38:55;;;;;;;7.78;4.63;;;;;;;;;;5015258;28;20092;-70
2021/07/05 08:41:20;;;;;;;5.93;4.50;;;;;;;;;;5032197;28;20021;-70
2021/07/05 08:43:47;;;;;;;7.60;4.70;;;;;;;;;;5015397;28;20033;-69
2021/07/05 08:46:14;;;;;;;7.88;4.25;;;;;;;;;;5032092;28;20026;-70
2021/07/05 08:48:40;;;;;;;17.35;5.30;;;;;;;;;;5032402;28;20513;-70
2021/07/05 08:51:07;;;;;;;10.00;5.00;;;;;;;;;;5032613;28;20029;-69
2021/07/05 08:53:32;;;;;;;8.00;4.35;;;;;;;;;;5033051;28;20562;-69
2021/07/05 08:55:58;;;;;;;5.38;4.25;;;;;;;;;;5032707;28;20056;-68
2021/07/05 08:58:25;;;;;;;8.27;4.63;;;;;;;;;;5032263;28;20367;-69
2021/07/05 09:00:50;;;;;;;6.72;4.35;;;;;;;;;;5032691;28;20015;-69
2021/07/05 09:03:20;;;;;;;5.45;3.95;;;;;;;;;;5032597;28;20075;-70
2021/07/05 09:05:46;;;;;;;5.95;4.68;;;;;;;;;;5032872;28;20096;-69
2021/07/05 09:08:11;;;;;;;4.47;4.03;;;;;;;;;;5032703;28;20021;-74
2021/07/05 09:10:41;;;;;;;7.18;4.15;;;;;;;;;;5032457;28;20032;-73
2021/07/05 09:13:08;;;;;;;6.78;4.75;;;;;;;;;;4998779;28;20036;-78
2021/07/05 09:15:34;;;;;;;8.98;4.38;;;;;;;;;;4996703;28;20475;-74
2021/07/05 09:18:00;;;;;;;11.55;4.63;;;;;;;;;;5032388;28;20034;-75
2021/07/05 09:20:25;;;;;;;4.65;4.03;;;;;;;;;;5033325;28;20026;-75
2021/07/05 09:23:12;;;;;;;5.38;4.05;;;;;;;;;;5033389;28;20018;-77
2021/07/05 09:25:39;;;;;;;8.32;4.43;;;;;;;;;;5017637;28;20163;-73
2021/07/05 09:28:05;;;;;;;9.20;4.07;;;;;;;;;;5048824;28;20025;-74
2021/07/05 09:30:40;;;;;;;7.60;4.38;;;;;;;;;;5034060;28;20032;-73
2021/07/05 09:33:24;;;;;;;6.05;3.92;;;;;;;;;;5037564;28;20021;-75
2021/07/05 09:35:51;;;;;;;9.25;4.63;;;;;;;;;;5032746;28;20028;-73
2021/07/05 09:38:35;;;;;;;8.40;4.20;;;;;;;;;;5031173;28;20044;-75
2021/07/05 09:41:19;;;;;;;8.18;4.50;;;;;;;;;;5031915;28;20045;-74
2021/07/05 09:43:45;;;;;;;5.40;4.05;;;;;;;;;;5031749;28;20031;-73
2021/07/05 09:46:11;;;;;;;6.97;4.18;;;;;;;;;;5031913;28;20021;-77
2021/07/05 09:48:43;;;;;;;4.20;3.80;;;;;;;;;;5031862;28;20385;-79
2021/07/05 09:51:09;;;;;;;4.32;3.90;;;;;;;;;;5031780;28;20013;-78
2021/07/05 09:53:36;;;;;;;6.15;4.43;;;;;;;;;;5031088;28;20018;-74
2021/07/05 09:56:20;;;;;;;9.25;4.32;;;;;;;;;;5034092;28;20017;-73
2021/07/05 09:58:46;;;;;;;8.18;4.10;;;;;;;;;;5031965;28;20026;-72
2021/07/05 10:01:12;;;;;;;5.43;4.05;;;;;;;;;;5031202;28;20390;-78
2021/07/05 10:03:40;;;;;;;4.25;3.63;;;;;;;;;;5030948;28;20025;-77
2021/07/05 10:06:23;;;;;;;8.90;3.22;;;;;;;;;;5031034;28;20009;-79
2021/07/05 10:08:49;;;;;;;6.50;4.22;;;;;;;;;;5030511;28;20021;-73
2021/07/05 10:11:15;;;;;;;5.00;3.70;;;;;;;;;;5030725;28;20079;-75
2021/07/05 10:13:41;;;;;;;8.10;3.97;;;;;;;;;;5030952;28;20022;-75
2021/07/05 10:16:10;;;;;;;7.03;3.90;;;;;;;;;;5030598;28;20061;-76
2021/07/05 10:18:35;;;;;;;4.10;3.70;;;;;;;;;;5030874;28;20051;-77
2021/07/05 10:21:01;;;;;;;6.25;4.10;;;;;;;;;;5031505;28;20062;-73
2021/07/05 10:23:27;;;;;;;6.40;3.30;;;;;;;;;;5008928;28;20097;-75
2021/07/05 10:25:53;;;;;;;5.07;3.30;;;;;;;;;;5029892;28;20478;-74
2021/07/05 10:28:19;;;;;;;5.55;3.95;;;;;;;;;;5031153;28;20360;-74
2021/07/05 10:30:47;;;;;;;5.20;3.20;;;;;;;;;;5030070;28;20126;-72
2021/07/05 10:33:13;;;;;;;4.40;3.25;;;;;;;;;;5007122;28;20517;-73
2021/07/05 10:35:46;;;;;;;9.57;3.40;;;;;;;;;;5041728;28;20036;-72
2021/07/05 10:38:13;;;;;;;4.47;3.42;;;;;;;;;;5031750;28;20045;-70
2021/07/05 10:40:47;;;;;;;8.50;3.58;;;;;;;;;;5034254;28;20018;-70
2021/07/05 10:43:15;;;;;;;4.00;3.40;;;;;;;;;;5044913;28;20013;-71
2021/07/05 10:45:43;;;;;;;4.13;3.58;;;;;;;;;;5049617;28;20374;-71
2021/07/05 10:48:10;;;;;;;7.18;3.88;;;;;;;;;;5040735;28;20020;-74
2021/07/05 10:50:45;;;;;;;22.27;8.95;;;;;;;;;;5016874;28;20025;-70
